M/V Donald Wood — WDH7537 — position and weather

sailwx.info

Track history (hours):
 
Tides and Currents Weather Stations Pressure Air Temp Water Temp Dewpoint Dewpoint Depression Visibility Wind Speed Wind Dir Waves Ship Positions

M/V Donald Wood

Owner: Wood Towing, LLC., Avondale, LA. More information available from US FCC via Universal Licensing System.

Last reported at 2017-Sep-13 09:23 UTC. Time now 2017-Sep-22 00:45 UTC.
Position N 29°38' W 090°21'.
Warning: this ship's position is 8 days out of date.

Length 23 m; draft 2.6 m.

Type: Towing. MMSI: 367649170.

Date/timePositionNaut miles runAvg speedWind from/ knotsBaromVisibWave heightAir tempDewpointWater temp
2017-Sep-13 09:23N 29°38' W 090°21'2 4.2
2017-Sep-13 08:51N 29°36' W 090°22'3 3.9
2017-Sep-13 08:07N 29°33' W 090°24'0 3.6
2017-Sep-13 08:00N 29°33' W 090°24'2 4.1
2017-Sep-13 07:30N 29°33' W 090°26'2 4.3
2017-Sep-13 07:00N 29°34' W 090°29'2 4.3
2017-Sep-13 06:30N 29°34' W 090°31'2 4.0
2017-Sep-13 06:00N 29°34' W 090°34'2 3.9
2017-Sep-13 05:30N 29°35' W 090°36'2 3.8
2017-Sep-13 05:00N 29°35' W 090°38'2 4.0
2017-Sep-13 04:30N 29°36' W 090°40'2 3.8
2017-Sep-13 04:00N 29°37' W 090°42'2 3.1
2017-Sep-13 03:30N 29°35' W 090°43'2 3.6
2017-Sep-13 03:00N 29°34' W 090°44'1 2.3
2017-Sep-13 02:30N 29°33' W 090°45'0 0.5
2017-Sep-13 02:00N 29°33' W 090°45'0 0.0
2017-Sep-13 01:30N 29°33' W 090°45'0 0.0
2017-Sep-13 01:00N 29°33' W 090°45'1 1.8
2017-Sep-13 00:30N 29°32' W 090°46'2 4.1
2017-Sep-13 00:00N 29°32' W 090°48'65 3.1
2017-Sep-12 03:01N 29°50' W 092°00'0 4.5
2017-Sep-12 02:59N 29°50' W 092°00'2 4.6
2017-Sep-12 02:30N 29°49' W 092°03'2 4.6
2017-Sep-12 02:00N 29°48' W 092°05'2 4.6
2017-Sep-12 01:30N 29°47' W 092°08'2 4.9
2017-Sep-12 01:00N 29°47' W 092°10'3 5.1
2017-Sep-12 00:30N 29°47' W 092°13'0 0.9
2017-Sep-12 00:00N 29°48' W 092°14'2 3.4
2017-Sep-11 23:30N 29°48' W 092°15'3 4.8
2017-Sep-11 22:57N 29°50' W 092°18'42 3.9
2017-Sep-11 12:01N 29°56' W 093°06'0 4.1
2017-Sep-11 12:00N 29°56' W 093°06'2 4.0
2017-Sep-11 11:28N 29°56' W 093°09'2 3.7
2017-Sep-11 11:00N 29°57' W 093°10'2 4.1
2017-Sep-11 10:30N 29°58' W 093°12'2 4.1
2017-Sep-11 09:57N 30°00' W 093°14'2 3.5
2017-Sep-11 09:30N 30°02' W 093°14'2 3.7
2017-Sep-11 09:00N 30°03' W 093°16'2 3.8
2017-Sep-11 08:28N 30°05' W 093°17'1 2.7
2017-Sep-11 08:00N 30°05' W 093°18'1 2.0
2017-Sep-11 07:29N 30°06' W 093°19'0 0.1
2017-Sep-11 06:37N 30°06' W 093°19'0 0.3
2017-Sep-11 06:23N 30°06' W 093°19'0 0.0
2017-Sep-11 05:56N 30°06' W 093°19'0 0.1
2017-Sep-11 05:29N 30°06' W 093°19'0 0.1
2017-Sep-11 05:00N 30°06' W 093°19'0 0.1
2017-Sep-11 04:28N 30°06' W 093°19'0 0.9
2017-Sep-11 04:00N 30°06' W 093°18'2 3.4
2017-Sep-11 03:29N 30°05' W 093°17'3 4.8
2017-Sep-11 02:55N 30°02' W 093°16'2 4.6
2017-Sep-11 02:30N 30°01' W 093°14'3 4.6
2017-Sep-11 01:57N 29°59' W 093°12'0 0.0
2017-Sep-11 01:30N 29°59' W 093°12'3 5.8
2017-Sep-11 01:00N 29°57' W 093°10'3 6.2
2017-Sep-11 00:30N 29°56' W 093°07'3 5.4
2017-Sep-11 00:00N 29°56' W 093°03'0 0.0
2017-Sep-10 23:30N 29°56' W 093°03'0 0.0
2017-Sep-10 23:00N 29°56' W 093°03'0 0.0
2017-Sep-10 22:28N 29°56' W 093°03'0 0.0
2017-Sep-10 21:59N 29°56' W 093°03'0 0.0
2017-Sep-10 21:28N 29°56' W 093°03'0 0.0
2017-Sep-10 20:59N 29°56' W 093°03'37 5.3
2017-Sep-10 14:00N 29°51' W 092°21'3 5.4
2017-Sep-10 13:29N 29°50' W 092°18'3 5.4
2017-Sep-10 12:59N 29°48' W 092°16'2 4.5
2017-Sep-10 12:30N 29°48' W 092°13'3 5.0
2017-Sep-10 11:59N 29°47' W 092°11'2 4.4
2017-Sep-10 11:29N 29°47' W 092°08'2 4.7
2017-Sep-10 11:00N 29°48' W 092°06'60 5.5
2017-Sep-10 00:03N 29°36' W 090°58'3 6.5
2017-Sep-09 23:39N 29°34' W 090°56'0 1.4
2017-Sep-09 23:28N 29°34' W 090°56'4 5.6
2017-Sep-09 22:47N 29°32' W 090°52'2 6.9
2017-Sep-09 22:30N 29°32' W 090°49'3 6.6
2017-Sep-09 22:00N 29°32' W 090°46'3 6.0
2017-Sep-09 21:30N 29°34' W 090°43'3 5.4
2017-Sep-09 21:00N 29°37' W 090°42'3 5.5
2017-Sep-09 20:30N 29°36' W 090°39'0 0.2
2017-Sep-09 20:00N 29°36' W 090°39'0 0.0
2017-Sep-09 19:30N 29°36' W 090°39'0 0.0
2017-Sep-09 19:00N 29°36' W 090°39'0 0.0
2017-Sep-09 18:30N 29°36' W 090°39'1 2.0
2017-Sep-09 18:00N 29°35' W 090°38'2 4.6
2017-Sep-09 17:30N 29°35' W 090°35'2 5.1
2017-Sep-09 17:00N 29°34' W 090°33'  
Track history (hours):
 
Tides and Currents Weather Stations Pressure Air Temp Water Temp Dewpoint Dewpoint Depression Visibility Wind Speed Wind Dir Waves Ship Positions

M/V Donald Wood

Owner: Wood Towing, LLC., Avondale, LA. More information available from US FCC via Universal Licensing System.

Last reported at 2017-Sep-13 09:23 UTC. Time now 2017-Sep-22 00:45 UTC.
Position N 29°38' W 090°21'.
Warning: this ship's position is 8 days out of date.

Length 23 m; draft 2.6 m.

Type: Towing. MMSI: 367649170.

Date/timePositionNaut miles runAvg speedWind from/ knotsBaromVisibWave heightAir tempDewpointWater temp
2017-Sep-13 09:23N 29°38' W 090°21'2 4.2
2017-Sep-13 08:51N 29°36' W 090°22'3 3.9
2017-Sep-13 08:07N 29°33' W 090°24'0 3.6
2017-Sep-13 08:00N 29°33' W 090°24'2 4.1
2017-Sep-13 07:30N 29°33' W 090°26'2 4.3
2017-Sep-13 07:00N 29°34' W 090°29'2 4.3
2017-Sep-13 06:30N 29°34' W 090°31'2 4.0
2017-Sep-13 06:00N 29°34' W 090°34'2 3.9
2017-Sep-13 05:30N 29°35' W 090°36'2 3.8
2017-Sep-13 05:00N 29°35' W 090°38'2 4.0
2017-Sep-13 04:30N 29°36' W 090°40'2 3.8
2017-Sep-13 04:00N 29°37' W 090°42'2 3.1
2017-Sep-13 03:30N 29°35' W 090°43'2 3.6
2017-Sep-13 03:00N 29°34' W 090°44'1 2.3
2017-Sep-13 02:30N 29°33' W 090°45'0 0.5
2017-Sep-13 02:00N 29°33' W 090°45'0 0.0
2017-Sep-13 01:30N 29°33' W 090°45'0 0.0
2017-Sep-13 01:00N 29°33' W 090°45'1 1.8
2017-Sep-13 00:30N 29°32' W 090°46'2 4.1
2017-Sep-13 00:00N 29°32' W 090°48'65 3.1
2017-Sep-12 03:01N 29°50' W 092°00'0 4.5
2017-Sep-12 02:59N 29°50' W 092°00'2 4.6
2017-Sep-12 02:30N 29°49' W 092°03'2 4.6
2017-Sep-12 02:00N 29°48' W 092°05'2 4.6
2017-Sep-12 01:30N 29°47' W 092°08'2 4.9
2017-Sep-12 01:00N 29°47' W 092°10'3 5.1
2017-Sep-12 00:30N 29°47' W 092°13'0 0.9
2017-Sep-12 00:00N 29°48' W 092°14'2 3.4
2017-Sep-11 23:30N 29°48' W 092°15'3 4.8
2017-Sep-11 22:57N 29°50' W 092°18'42 3.9
2017-Sep-11 12:01N 29°56' W 093°06'0 4.1
2017-Sep-11 12:00N 29°56' W 093°06'2 4.0
2017-Sep-11 11:28N 29°56' W 093°09'2 3.7
2017-Sep-11 11:00N 29°57' W 093°10'2 4.1
2017-Sep-11 10:30N 29°58' W 093°12'2 4.1
2017-Sep-11 09:57N 30°00' W 093°14'2 3.5
2017-Sep-11 09:30N 30°02' W 093°14'2 3.7
2017-Sep-11 09:00N 30°03' W 093°16'2 3.8
2017-Sep-11 08:28N 30°05' W 093°17'1 2.7
2017-Sep-11 08:00N 30°05' W 093°18'1 2.0
2017-Sep-11 07:29N 30°06' W 093°19'0 0.1
2017-Sep-11 06:37N 30°06' W 093°19'0 0.3
2017-Sep-11 06:23N 30°06' W 093°19'0 0.0
2017-Sep-11 05:56N 30°06' W 093°19'0 0.1
2017-Sep-11 05:29N 30°06' W 093°19'0 0.1
2017-Sep-11 05:00N 30°06' W 093°19'0 0.1
2017-Sep-11 04:28N 30°06' W 093°19'0 0.9
2017-Sep-11 04:00N 30°06' W 093°18'2 3.4
2017-Sep-11 03:29N 30°05' W 093°17'3 4.8
2017-Sep-11 02:55N 30°02' W 093°16'2 4.6
2017-Sep-11 02:30N 30°01' W 093°14'3 4.6
2017-Sep-11 01:57N 29°59' W 093°12'0 0.0
2017-Sep-11 01:30N 29°59' W 093°12'3 5.8
2017-Sep-11 01:00N 29°57' W 093°10'3 6.2
2017-Sep-11 00:30N 29°56' W 093°07'3 5.4
2017-Sep-11 00:00N 29°56' W 093°03'0 0.0
2017-Sep-10 23:30N 29°56' W 093°03'0 0.0
2017-Sep-10 23:00N 29°56' W 093°03'0 0.0
2017-Sep-10 22:28N 29°56' W 093°03'0 0.0
2017-Sep-10 21:59N 29°56' W 093°03'0 0.0
2017-Sep-10 21:28N 29°56' W 093°03'0 0.0
2017-Sep-10 20:59N 29°56' W 093°03'37 5.3
2017-Sep-10 14:00N 29°51' W 092°21'3 5.4
2017-Sep-10 13:29N 29°50' W 092°18'3 5.4
2017-Sep-10 12:59N 29°48' W 092°16'2 4.5
2017-Sep-10 12:30N 29°48' W 092°13'3 5.0
2017-Sep-10 11:59N 29°47' W 092°11'2 4.4
2017-Sep-10 11:29N 29°47' W 092°08'2 4.7
2017-Sep-10 11:00N 29°48' W 092°06'60 5.5
2017-Sep-10 00:03N 29°36' W 090°58'3 6.5
2017-Sep-09 23:39N 29°34' W 090°56'0 1.4
2017-Sep-09 23:28N 29°34' W 090°56'4 5.6
2017-Sep-09 22:47N 29°32' W 090°52'2 6.9
2017-Sep-09 22:30N 29°32' W 090°49'3 6.6
2017-Sep-09 22:00N 29°32' W 090°46'3 6.0
2017-Sep-09 21:30N 29°34' W 090°43'3 5.4
2017-Sep-09 21:00N 29°37' W 090°42'3 5.5
2017-Sep-09 20:30N 29°36' W 090°39'0 0.2
2017-Sep-09 20:00N 29°36' W 090°39'0 0.0
2017-Sep-09 19:30N 29°36' W 090°39'0 0.0
2017-Sep-09 19:00N 29°36' W 090°39'0 0.0
2017-Sep-09 18:30N 29°36' W 090°39'1 2.0
2017-Sep-09 18:00N 29°35' W 090°38'2 4.6
2017-Sep-09 17:30N 29°35' W 090°35'2 5.1
2017-Sep-09 17:00N 29°34' W 090°33'  

Dump ship's entire track history